createdAt,value
2023-02-11T00:46:34.882Z,7.20
2023-02-11T00:49:03.318Z,6.00
2023-02-11T00:51:32.257Z,4.60
2023-02-11T00:54:00.695Z,6.72
2023-02-11T00:56:29.108Z,5.68
2023-02-11T00:58:57.932Z,7.25
2023-02-11T01:46:29.030Z,4.40
2023-02-11T01:49:03.906Z,4.47
2023-02-11T01:51:39.630Z,6.10
2023-02-11T01:54:28.817Z,6.05
2023-02-11T01:57:18.354Z,5.10
2023-02-11T01:59:51.389Z,5.18
2023-02-11T02:46:40.918Z,4.75
2023-02-11T02:49:15.425Z,5.38
2023-02-11T02:52:22.451Z,4.25
2023-02-11T02:55:15.824Z,6.13
2023-02-11T02:58:04.470Z,4.28
2023-02-11T03:45:58.748Z,4.97
2023-02-11T03:48:32.229Z,5.22
2023-02-11T03:51:04.796Z,4.65
2023-02-11T03:53:33.338Z,5.15
2023-02-11T03:56:07.735Z,3.88
2023-02-11T03:58:36.272Z,4.50
2023-02-11T04:48:05.414Z,3.50
2023-02-11T04:50:33.744Z,3.35
2023-02-11T04:53:02.145Z,5.22
2023-02-11T04:55:30.558Z,3.30
2023-02-11T04:57:59.083Z,3.28
2023-02-11T05:47:43.397Z,4.00
2023-02-11T05:50:11.845Z,3.58
2023-02-11T05:52:40.295Z,3.33
2023-02-11T05:55:09.443Z,5.43
2023-02-11T05:57:37.961Z,3.28
2023-02-11T06:00:08.384Z,5.07
2023-02-11T06:02:42.448Z,3.33
2023-02-11T06:05:11.451Z,3.08
2023-02-11T06:07:39.849Z,3.72
2023-02-11T06:10:10.292Z,3.72
2023-02-11T06:12:39.173Z,2.92
2023-02-11T06:15:08.716Z,3.40
2023-02-11T06:17:37.467Z,3.28
2023-02-11T06:20:10.496Z,3.05
2023-02-11T06:22:39.304Z,3.58
2023-02-11T06:25:08.378Z,4.20
2023-02-11T06:27:37.082Z,2.80
2023-02-11T06:30:06.870Z,3.75
2023-02-11T06:32:45.267Z,3.55
2023-02-11T06:35:15.681Z,3.45
2023-02-11T06:37:44.225Z,2.90
2023-02-11T06:40:13.353Z,3.15
2023-02-11T06:42:41.798Z,3.78
2023-02-11T06:45:14.055Z,3.25
2023-02-11T06:47:42.933Z,4.05
2023-02-11T06:50:15.659Z,3.97
2023-02-11T06:52:44.139Z,3.20
2023-02-11T06:55:12.749Z,3.55
2023-02-11T06:57:41.303Z,3.28
2023-02-11T07:00:11.805Z,3.60
2023-02-11T07:02:40.281Z,3.60
2023-02-11T07:05:09.926Z,3.20
2023-02-11T07:07:39.803Z,3.65
2023-02-11T07:10:09.346Z,3.38
2023-02-11T07:12:38.211Z,3.22
2023-02-11T07:15:07.849Z,3.35
2023-02-11T07:17:36.733Z,3.65
2023-02-11T07:20:06.068Z,4.28
2023-02-11T07:22:36.028Z,3.17
2023-02-11T07:25:07.076Z,3.80
2023-02-11T07:27:35.518Z,4.00
2023-02-11T07:30:06.993Z,3.08
2023-02-11T07:32:36.066Z,3.58
2023-02-11T07:35:05.662Z,4.57
2023-02-11T07:37:35.432Z,3.05
2023-02-11T07:40:06.060Z,3.97
2023-02-11T07:42:36.080Z,6.28
2023-02-11T07:45:05.253Z,4.03
2023-02-11T07:47:35.662Z,6.28
2023-02-11T07:50:04.402Z,6.00
2023-02-11T07:52:33.157Z,6.53
2023-02-11T07:55:04.688Z,5.40
2023-02-11T07:57:34.914Z,3.80
2023-02-11T08:00:03.623Z,5.13
2023-02-11T08:02:38.974Z,6.80
2023-02-11T08:05:08.424Z,5.22
2023-02-11T08:07:37.100Z,5.63
2023-02-11T08:10:06.565Z,5.07
2023-02-11T08:12:36.513Z,5.68
2023-02-11T08:15:05.551Z,4.32
2023-02-11T08:17:35.992Z,5.32
2023-02-11T08:20:05.381Z,4.88
2023-02-11T08:22:34.814Z,5.05
2023-02-11T08:25:03.641Z,3.85
2023-02-11T08:27:32.697Z,5.22
2023-02-11T08:30:02.701Z,5.15
2023-02-11T08:32:31.409Z,4.68
2023-02-11T08:35:00.284Z,5.00
2023-02-11T08:37:30.293Z,6.70
2023-02-11T08:40:00.059Z,6.55
2023-02-11T08:42:28.857Z,4.57
2023-02-11T08:44:57.422Z,5.68
2023-02-11T08:47:27.426Z,4.40
2023-02-11T08:49:56.023Z,4.30
2023-02-11T08:52:24.554Z,4.30
2023-02-11T08:54:53.302Z,4.45
2023-02-11T08:57:21.994Z,5.38
2023-02-11T08:59:50.869Z,4.82
2023-02-11T09:02:19.483Z,4.03
2023-02-11T09:04:49.632Z,4.57
2023-02-11T09:07:18.271Z,5.35
2023-02-11T09:09:47.088Z,5.03
2023-02-11T09:12:15.672Z,3.80
2023-02-11T09:14:44.174Z,3.88
2023-02-11T09:17:12.673Z,3.60
2023-02-11T09:19:41.751Z,5.03
2023-02-11T09:22:11.676Z,7.60
2023-02-11T09:24:40.430Z,14.88
2023-02-11T09:27:09.205Z,23.67
2023-02-11T09:29:37.963Z,22.48
2023-02-11T09:32:09.780Z,23.95
2023-02-11T09:34:38.817Z,19.55
2023-02-11T09:37:07.612Z,21.77
2023-02-11T09:39:37.609Z,16.85
2023-02-11T09:42:44.725Z,16.52
2023-02-11T09:45:19.765Z,16.00
2023-02-11T09:47:53.742Z,17.90
2023-02-11T09:50:28.999Z,16.27
2023-02-11T09:53:02.755Z,16.42
2023-02-11T09:55:39.428Z,16.83
2023-02-11T09:58:15.174Z,12.60
2023-02-11T10:00:50.010Z,12.13
2023-02-11T10:03:52.710Z,14.60
2023-02-11T10:06:41.726Z,11.30
2023-02-11T10:09:26.726Z,12.63
2023-02-11T10:12:12.697Z,14.18
2023-02-11T10:15:19.032Z,12.55
2023-02-11T10:18:07.748Z,9.85
2023-02-11T10:20:39.988Z,12.63
2023-02-11T10:23:16.592Z,8.95
2023-02-11T10:25:47.648Z,9.95
2023-02-11T10:28:19.958Z,11.60
2023-02-11T10:30:59.401Z,7.15
2023-02-11T10:33:32.559Z,8.38
2023-02-11T10:36:01.488Z,7.68
2023-02-11T10:38:30.102Z,5.63
2023-02-11T10:40:58.582Z,5.70
2023-02-11T10:43:32.184Z,8.52
2023-02-11T10:46:04.155Z,4.75
2023-02-11T10:48:43.902Z,5.72
2023-02-11T10:51:20.740Z,4.05
2023-02-11T10:53:51.718Z,4.85
2023-02-11T10:56:27.663Z,6.60
2023-02-11T10:59:02.163Z,7.47
2023-02-11T11:01:43.569Z,7.97
2023-02-11T11:04:44.215Z,5.95
2023-02-11T11:07:19.191Z,6.30
2023-02-11T11:09:53.249Z,3.78
2023-02-11T11:12:30.162Z,6.07
2023-02-11T11:15:02.766Z,6.90
2023-02-11T11:17:31.975Z,6.45
2023-02-11T11:20:25.244Z,4.28
2023-02-11T11:23:10.148Z,8.13
2023-02-11T11:25:42.731Z,6.18
2023-02-11T11:28:25.406Z,7.80
2023-02-11T11:30:58.788Z,5.68
2023-02-11T11:33:30.628Z,7.00
2023-02-11T11:36:05.285Z,4.55
2023-02-11T11:38:35.843Z,4.95
2023-02-11T11:41:24.956Z,7.00
2023-02-11T11:44:04.139Z,6.30
2023-02-11T11:46:37.877Z,5.50
2023-02-11T11:49:23.563Z,7.05
2023-02-11T11:52:03.848Z,4.57
2023-02-11T11:54:35.458Z,8.45
2023-02-11T11:57:13.619Z,7.25
2023-02-11T11:59:42.418Z,5.03
2023-02-11T12:02:48.109Z,7.70
2023-02-11T12:05:25.946Z,7.45
2023-02-11T12:08:08.986Z,5.68
2023-02-11T12:11:03.497Z,5.50
2023-02-11T12:13:47.264Z,6.03
2023-02-11T12:16:29.383Z,6.65
2023-02-11T12:20:02.088Z,6.07
2023-02-11T12:22:45.861Z,6.05
2023-02-11T12:25:30.955Z,6.32
2023-02-11T12:28:26.408Z,5.13
2023-02-11T12:31:12.021Z,10.02
2023-02-11T12:34:18.804Z,4.47
2023-02-11T12:37:02.970Z,3.92
2023-02-11T12:39:43.811Z,4.55
2023-02-11T12:43:06.251Z,4.32
2023-02-11T12:46:02.082Z,4.68
2023-02-11T12:49:03.769Z,3.42
2023-02-11T12:51:50.466Z,3.90
2023-02-11T12:54:26.724Z,3.30
2023-02-11T12:57:03.393Z,3.63
2023-02-11T12:59:55.554Z,4.07
2023-02-11T13:02:37.530Z,4.00
2023-02-11T13:05:18.208Z,4.57
2023-02-11T13:07:51.107Z,4.60
2023-02-11T13:10:30.078Z,4.90
2023-02-11T13:13:18.425Z,3.88
2023-02-11T13:15:52.840Z,3.72
2023-02-11T13:18:44.836Z,5.72
2023-02-11T13:21:55.716Z,3.88
2023-02-11T13:24:39.489Z,6.78
2023-02-11T13:27:23.638Z,4.43
2023-02-11T13:30:28.515Z,4.50
2023-02-11T13:33:21.311Z,4.05
2023-02-11T13:36:07.358Z,3.50
2023-02-11T13:38:36.854Z,4.75
2023-02-11T13:41:19.367Z,3.85
2023-02-11T13:44:04.653Z,5.47
2023-02-11T13:46:57.254Z,3.58
2023-02-11T13:49:36.883Z,3.75
2023-02-11T13:52:17.751Z,3.90
2023-02-11T13:54:51.625Z,4.55
2023-02-11T13:57:45.582Z,7.63
2023-02-11T14:00:51.742Z,10.07
2023-02-11T14:03:49.038Z,6.65
2023-02-11T14:06:40.397Z,8.05
2023-02-11T14:09:41.405Z,9.60
2023-02-11T14:12:36.736Z,12.07
2023-02-11T14:15:41.348Z,10.82
2023-02-11T14:18:39.247Z,8.93
2023-02-11T14:21:15.564Z,14.25
2023-02-11T14:23:44.797Z,276.23
2023-02-11T14:26:40.723Z,274.30
2023-02-11T14:29:17.575Z,312.15
2023-02-11T14:31:56.324Z,246.35
2023-02-11T14:34:51.010Z,226.73
2023-02-11T14:37:34.951Z,184.60
2023-02-11T14:40:17.871Z,119.03
2023-02-11T14:42:46.941Z,107.90
2023-02-11T14:45:22.972Z,63.50
2023-02-11T14:47:59.524Z,68.95
2023-02-11T14:50:33.606Z,45.40
2023-02-11T14:53:03.559Z,39.08
2023-02-11T14:55:35.049Z,37.05
2023-02-11T14:58:19.378Z,32.63
2023-02-11T15:00:56.976Z,37.15
2023-02-11T15:03:36.929Z,30.10
2023-02-11T15:06:13.392Z,33.65
2023-02-11T15:08:48.321Z,24.10
2023-02-11T15:11:21.811Z,22.08
2023-02-11T15:13:54.357Z,21.95
2023-02-11T15:16:27.199Z,19.77
2023-02-11T15:19:02.454Z,29.60
2023-02-11T15:21:34.134Z,17.42
2023-02-11T15:24:06.137Z,17.02
2023-02-11T15:26:35.353Z,21.25
2023-02-11T15:29:04.896Z,56.47
2023-02-11T15:31:35.161Z,127.15
2023-02-11T15:34:10.563Z,101.45
2023-02-11T15:36:39.547Z,92.07
2023-02-11T15:39:32.524Z,69.28
2023-02-11T15:42:20.800Z,77.75
2023-02-11T15:44:56.541Z,74.53
2023-02-11T15:47:25.455Z,81.00
2023-02-11T15:49:55.420Z,64.18
2023-02-11T15:52:27.639Z,71.35
2023-02-11T15:55:00.627Z,65.60
2023-02-11T15:57:30.114Z,72.97
2023-02-11T16:00:04.250Z,64.18
2023-02-11T16:02:45.134Z,67.45
2023-02-11T16:05:30.855Z,80.25
2023-02-11T16:08:00.685Z,50.03
2023-02-11T16:10:31.872Z,47.08
2023-02-11T16:13:21.067Z,49.90
2023-02-11T16:15:53.524Z,44.58
2023-02-11T16:18:38.349Z,44.65
2023-02-11T16:21:16.836Z,47.67
2023-02-11T16:23:53.624Z,42.42
2023-02-11T16:26:28.678Z,41.80
2023-02-11T16:29:06.845Z,36.92
2023-02-11T16:31:38.406Z,49.70
2023-02-11T16:34:17.794Z,38.80
2023-02-11T16:36:48.519Z,37.35
2023-02-11T16:39:18.233Z,46.95
2023-02-11T16:41:46.733Z,38.25
2023-02-11T16:44:15.163Z,39.28
2023-02-11T16:46:43.908Z,36.58
2023-02-11T16:49:17.233Z,32.60
2023-02-11T16:51:49.519Z,39.53
2023-02-11T16:54:19.768Z,35.67
2023-02-11T16:56:48.412Z,26.70
2023-02-11T16:59:17.006Z,25.00
2023-02-11T17:01:46.407Z,27.25
2023-02-11T17:04:21.526Z,21.63
2023-02-11T17:06:51.441Z,28.13
2023-02-11T17:09:22.750Z,24.02
2023-02-11T17:11:52.235Z,18.67
2023-02-11T17:14:21.751Z,23.38
2023-02-11T17:16:50.526Z,24.17
2023-02-11T17:19:22.214Z,24.58
2023-02-11T17:21:55.144Z,24.02
2023-02-11T17:24:24.159Z,22.48
2023-02-11T17:26:52.810Z,19.33
2023-02-11T17:29:23.490Z,24.40
2023-02-11T17:31:53.141Z,18.85
2023-02-11T17:34:23.970Z,20.52
2023-02-11T17:36:53.788Z,17.90
2023-02-11T17:39:22.234Z,17.23
2023-02-11T17:41:51.340Z,18.35
2023-02-11T17:44:19.728Z,20.77
2023-02-11T17:46:48.127Z,20.15
2023-02-11T17:49:16.754Z,17.33
2023-02-11T17:51:45.330Z,20.27
2023-02-11T17:54:18.694Z,20.73
2023-02-11T17:56:50.529Z,18.75
2023-02-11T17:59:19.150Z,17.90
2023-02-11T18:01:47.612Z,23.27
2023-02-11T18:04:18.975Z,18.35
2023-02-11T18:06:47.792Z,18.38
2023-02-11T18:09:17.709Z,11.85
2023-02-11T18:11:46.336Z,11.77
2023-02-11T18:14:14.762Z,12.38
2023-02-11T18:16:44.860Z,14.52
2023-02-11T18:19:14.190Z,15.07
2023-02-11T18:21:42.592Z,13.43
2023-02-11T18:24:12.048Z,12.50
2023-02-11T18:26:41.963Z,14.40
2023-02-11T18:29:10.821Z,9.93
2023-02-11T18:31:39.611Z,10.57
2023-02-11T18:34:10.801Z,12.52
2023-02-11T18:36:39.443Z,13.30
2023-02-11T18:39:08.174Z,13.05
2023-02-11T18:41:36.615Z,11.10
2023-02-11T18:44:06.533Z,9.70
2023-02-11T18:46:35.475Z,10.27
2023-02-11T18:49:04.093Z,13.57
2023-02-11T18:51:32.565Z,9.57
2023-02-11T18:54:01.669Z,10.73
2023-02-11T18:56:30.230Z,9.60
2023-02-11T18:59:01.390Z,9.18
2023-02-11T19:01:34.313Z,12.48
2023-02-11T19:04:05.822Z,11.43
2023-02-11T19:06:37.356Z,8.48
2023-02-11T19:09:09.825Z,10.93
2023-02-11T19:11:50.182Z,8.75
2023-02-11T19:14:22.639Z,8.38
2023-02-11T19:16:55.240Z,10.23
2023-02-11T19:19:25.743Z,10.27
2023-02-11T19:21:54.562Z,13.25
2023-02-11T19:24:24.557Z,8.35
2023-02-11T19:26:56.688Z,9.05
2023-02-11T19:29:25.471Z,10.52
2023-02-11T19:31:55.895Z,9.43
2023-02-11T19:34:24.604Z,8.63
2023-02-11T19:36:54.140Z,7.70
2023-02-11T19:39:24.648Z,7.60
2023-02-11T19:41:53.384Z,11.38
2023-02-11T19:44:22.595Z,9.75
2023-02-11T19:46:53.247Z,9.25
2023-02-11T19:49:25.822Z,7.63
2023-02-11T19:51:57.418Z,7.57
2023-02-11T19:54:27.422Z,10.48
2023-02-11T19:56:55.978Z,10.00
2023-02-11T19:59:24.595Z,8.77
2023-02-11T20:01:53.858Z,7.93
2023-02-11T20:04:25.114Z,7.85
2023-02-11T20:06:53.659Z,10.63
2023-02-11T20:09:22.812Z,7.60
2023-02-11T20:11:51.202Z,8.32
2023-02-11T20:14:19.793Z,7.05
2023-02-11T20:16:50.003Z,6.07
2023-02-11T20:19:21.475Z,4.32
2023-02-11T20:21:55.832Z,6.07
2023-02-11T20:24:25.427Z,6.22
2023-02-11T20:26:55.889Z,4.22
2023-02-11T20:29:25.403Z,5.05
2023-02-11T20:31:54.293Z,5.22
2023-02-11T20:34:22.984Z,4.45
2023-02-11T20:36:53.072Z,3.25
2023-02-11T20:39:22.824Z,4.63
2023-02-11T20:41:51.822Z,4.40
2023-02-11T20:44:21.728Z,5.75
2023-02-11T20:46:50.619Z,5.10
2023-02-11T20:49:22.447Z,3.83
2023-02-11T20:51:53.788Z,4.75
2023-02-11T20:54:23.780Z,4.88
2023-02-11T20:56:53.880Z,3.83
2023-02-11T20:59:22.881Z,5.10
2023-02-11T21:01:55.274Z,4.18
2023-02-11T21:04:27.736Z,5.70
2023-02-11T21:07:01.521Z,7.28
2023-02-11T21:09:32.477Z,4.38
2023-02-11T21:12:01.698Z,3.05
2023-02-11T21:14:30.661Z,4.47
2023-02-11T21:16:59.627Z,3.38
2023-02-11T21:19:28.451Z,3.47
2023-02-11T21:22:00.671Z,4.90
2023-02-11T21:24:30.844Z,4.63
2023-02-11T21:26:59.961Z,3.92
2023-02-11T21:29:28.502Z,4.75
2023-02-11T21:31:57.022Z,4.13
2023-02-11T21:34:25.562Z,4.93
2023-02-11T21:36:54.210Z,3.30
2023-02-11T21:39:24.173Z,3.70
2023-02-11T21:41:53.428Z,5.28
2023-02-11T21:44:22.178Z,8.15
2023-02-11T21:46:50.766Z,4.00
2023-02-11T21:49:20.162Z,110.15
2023-02-11T21:51:48.526Z,150.32
2023-02-11T21:54:18.695Z,131.18
2023-02-11T21:56:51.781Z,111.43
2023-02-11T21:59:20.205Z,115.45
2023-02-11T22:01:48.544Z,114.93
2023-02-11T22:04:17.203Z,118.63
2023-02-11T22:06:46.038Z,107.70
2023-02-11T22:09:14.894Z,110.13
2023-02-11T22:11:43.233Z,97.75
2023-02-11T22:14:13.017Z,112.15
2023-02-11T22:16:41.447Z,95.50
2023-02-11T22:19:10.882Z,96.18
2023-02-11T22:21:39.343Z,93.80
2023-02-11T22:24:08.443Z,81.25
2023-02-11T22:26:36.941Z,91.82
2023-02-11T22:29:05.593Z,71.82
2023-02-11T22:31:37.129Z,80.88
2023-02-11T22:34:07.021Z,84.40
2023-02-11T22:36:38.260Z,80.70
2023-02-11T22:39:09.736Z,80.80
2023-02-11T22:41:39.325Z,74.95
2023-02-11T22:44:08.265Z,73.05
2023-02-11T22:46:38.343Z,67.22
2023-02-11T22:49:07.769Z,62.33
2023-02-11T22:51:36.259Z,40.40
2023-02-11T22:54:08.389Z,39.47
2023-02-11T22:56:37.429Z,44.83
2023-02-11T22:59:08.560Z,41.65
2023-02-11T23:01:39.216Z,45.85
2023-02-11T23:04:12.271Z,44.38
2023-02-11T23:06:41.264Z,38.35
2023-02-11T23:09:12.475Z,44.38
2023-02-11T23:11:41.701Z,40.28
2023-02-11T23:14:12.299Z,37.42
2023-02-11T23:16:42.955Z,40.97
2023-02-11T23:19:12.572Z,39.70
2023-02-11T23:21:41.385Z,38.70
2023-02-11T23:24:13.844Z,35.55
2023-02-11T23:26:44.601Z,32.42
2023-02-11T23:29:13.719Z,32.47
2023-02-11T23:31:46.527Z,24.38
2023-02-11T23:34:20.691Z,14.73
2023-02-11T23:36:49.373Z,12.15
2023-02-11T23:39:18.491Z,9.10
2023-02-11T23:41:48.232Z,12.88
2023-02-11T23:44:17.104Z,8.93
2023-02-11T23:46:47.550Z,7.93
2023-02-11T23:49:16.709Z,7.15
2023-02-11T23:51:45.819Z,9.60
2023-02-11T23:54:16.038Z,7.45
2023-02-11T23:56:45.030Z,5.47
2023-02-11T23:59:13.969Z,10.27
